sensor_id;sensor_type;location;lat;lon;timestamp;temperature;humidity
22680;DHT22;11507;44.858;10.374;2024-03-22T00:02:09;9.50;99.90
22680;DHT22;11507;44.858;10.374;2024-03-22T00:04:36;9.50;99.90
22680;DHT22;11507;44.858;10.374;2024-03-22T00:07:03;9.50;99.90
22680;DHT22;11507;44.858;10.374;2024-03-22T00:09:29;9.50;99.90
22680;DHT22;11507;44.858;10.374;2024-03-22T00:11:56;9.60;99.90
22680;DHT22;11507;44.858;10.374;2024-03-22T00:14:22;9.60;99.90
22680;DHT22;11507;44.858;10.374;2024-03-22T00:16:49;9.60;99.90
22680;DHT22;11507;44.858;10.374;2024-03-22T00:19:15;9.50;99.90
22680;DHT22;11507;44.858;10.374;2024-03-22T00:21:42;9.30;99.90
22680;DHT22;11507;44.858;10.374;2024-03-22T00:24:08;9.30;99.90
22680;DHT22;11507;44.858;10.374;2024-03-22T00:26:34;9.20;99.90
22680;DHT22;11507;44.858;10.374;2024-03-22T00:29:01;9.10;99.90
22680;DHT22;11507;44.858;10.374;2024-03-22T00:31:27;9.10;99.90
22680;DHT22;11507;44.858;10.374;2024-03-22T00:33:53;9.00;99.90
22680;DHT22;11507;44.858;10.374;2024-03-22T00:36:20;9.00;99.90
22680;DHT22;11507;44.858;10.374;2024-03-22T00:38:47;9.00;99.90
22680;DHT22;11507;44.858;10.374;2024-03-22T00:41:13;9.00;99.90
22680;DHT22;11507;44.858;10.374;2024-03-22T00:43:40;9.10;99.90
22680;DHT22;11507;44.858;10.374;2024-03-22T00:46:06;9.10;99.90
22680;DHT22;11507;44.858;10.374;2024-03-22T00:48:33;9.10;99.90
22680;DHT22;11507;44.858;10.374;2024-03-22T00:51:01;9.00;99.90
22680;DHT22;11507;44.858;10.374;2024-03-22T00:53:28;9.00;99.90
22680;DHT22;11507;44.858;10.374;2024-03-22T00:55:55;8.90;99.90
22680;DHT22;11507;44.858;10.374;2024-03-22T00:58:22;8.80;99.90
22680;DHT22;11507;44.858;10.374;2024-03-22T01:00:48;8.80;99.90
22680;DHT22;11507;44.858;10.374;2024-03-22T01:03:14;8.80;99.90
22680;DHT22;11507;44.858;10.374;2024-03-22T01:05:41;8.90;99.90
22680;DHT22;11507;44.858;10.374;2024-03-22T01:08:08;8.90;99.90
22680;DHT22;11507;44.858;10.374;2024-03-22T01:10:35;8.90;99.90
22680;DHT22;11507;44.858;10.374;2024-03-22T01:13:01;8.80;99.90
22680;DHT22;11507;44.858;10.374;2024-03-22T01:15:27;8.80;99.90
22680;DHT22;11507;44.858;10.374;2024-03-22T01:17:54;8.80;99.90
22680;DHT22;11507;44.858;10.374;2024-03-22T01:20:21;8.60;99.90
22680;DHT22;11507;44.858;10.374;2024-03-22T01:22:47;8.50;99.90
22680;DHT22;11507;44.858;10.374;2024-03-22T01:25:14;8.40;99.90
22680;DHT22;11507;44.858;10.374;2024-03-22T01:27:40;8.30;99.90
22680;DHT22;11507;44.858;10.374;2024-03-22T01:30:07;8.20;99.90
22680;DHT22;11507;44.858;10.374;2024-03-22T01:32:36;8.10;99.90
22680;DHT22;11507;44.858;10.374;2024-03-22T01:35:03;8.00;99.90
22680;DHT22;11507;44.858;10.374;2024-03-22T01:37:30;7.90;99.90
22680;DHT22;11507;44.858;10.374;2024-03-22T01:39:56;7.90;99.90
22680;DHT22;11507;44.858;10.374;2024-03-22T01:42:22;7.90;99.90
22680;DHT22;11507;44.858;10.374;2024-03-22T01:44:49;7.80;99.90
22680;DHT22;11507;44.858;10.374;2024-03-22T01:47:16;7.80;99.90
22680;DHT22;11507;44.858;10.374;2024-03-22T01:49:43;7.80;99.90
22680;DHT22;11507;44.858;10.374;2024-03-22T01:52:10;7.80;99.90
22680;DHT22;11507;44.858;10.374;2024-03-22T01:54:36;7.80;99.90
22680;DHT22;11507;44.858;10.374;2024-03-22T01:57:03;7.80;99.90
22680;DHT22;11507;44.858;10.374;2024-03-22T01:59:30;7.90;99.90
22680;DHT22;11507;44.858;10.374;2024-03-22T02:01:57;7.90;99.90
22680;DHT22;11507;44.858;10.374;2024-03-22T02:04:23;7.80;99.90
22680;DHT22;11507;44.858;10.374;2024-03-22T02:06:50;7.80;99.90
22680;DHT22;11507;44.858;10.374;2024-03-22T02:09:16;7.80;99.90
22680;DHT22;11507;44.858;10.374;2024-03-22T02:11:43;7.70;99.90
22680;DHT22;11507;44.858;10.374;2024-03-22T02:14:09;7.70;99.90
22680;DHT22;11507;44.858;10.374;2024-03-22T02:16:36;7.70;99.90
22680;DHT22;11507;44.858;10.374;2024-03-22T02:19:02;7.70;99.90
22680;DHT22;11507;44.858;10.374;2024-03-22T02:21:29;7.70;99.90
22680;DHT22;11507;44.858;10.374;2024-03-22T02:23:55;7.70;99.90
22680;DHT22;11507;44.858;10.374;2024-03-22T02:26:22;7.60;99.90
22680;DHT22;11507;44.858;10.374;2024-03-22T02:28:48;7.50;99.90
22680;DHT22;11507;44.858;10.374;2024-03-22T02:31:15;7.40;99.90
22680;DHT22;11507;44.858;10.374;2024-03-22T02:33:41;7.30;99.90
22680;DHT22;11507;44.858;10.374;2024-03-22T02:36:08;7.30;99.90
22680;DHT22;11507;44.858;10.374;2024-03-22T02:38:35;7.20;99.90
22680;DHT22;11507;44.858;10.374;2024-03-22T02:41:01;7.20;99.90
22680;DHT22;11507;44.858;10.374;2024-03-22T02:43:27;7.10;99.90
22680;DHT22;11507;44.858;10.374;2024-03-22T02:45:54;7.00;99.90
22680;DHT22;11507;44.858;10.374;2024-03-22T02:48:21;7.00;99.90
22680;DHT22;11507;44.858;10.374;2024-03-22T02:50:47;7.00;99.90
22680;DHT22;11507;44.858;10.374;2024-03-22T02:53:13;7.00;99.90
22680;DHT22;11507;44.858;10.374;2024-03-22T02:55:40;7.00;99.90
22680;DHT22;11507;44.858;10.374;2024-03-22T02:58:09;7.00;99.90
22680;DHT22;11507;44.858;10.374;2024-03-22T03:00:37;7.00;99.90
22680;DHT22;11507;44.858;10.374;2024-03-22T03:03:07;7.00;99.90
22680;DHT22;11507;44.858;10.374;2024-03-22T03:05:34;7.00;99.90
22680;DHT22;11507;44.858;10.374;2024-03-22T03:08:03;7.10;99.90
22680;DHT22;11507;44.858;10.374;2024-03-22T03:10:30;7.10;99.90
22680;DHT22;11507;44.858;10.374;2024-03-22T03:12:56;7.10;99.90
22680;DHT22;11507;44.858;10.374;2024-03-22T03:15:22;7.10;99.90
22680;DHT22;11507;44.858;10.374;2024-03-22T03:17:49;7.10;99.90
22680;DHT22;11507;44.858;10.374;2024-03-22T03:20:17;7.10;99.90
22680;DHT22;11507;44.858;10.374;2024-03-22T03:22:44;7.10;99.90
22680;DHT22;11507;44.858;10.374;2024-03-22T03:25:10;7.10;99.90
22680;DHT22;11507;44.858;10.374;2024-03-22T03:27:37;7.00;99.90
22680;DHT22;11507;44.858;10.374;2024-03-22T03:30:03;7.10;99.90
22680;DHT22;11507;44.858;10.374;2024-03-22T03:32:31;7.10;99.90
22680;DHT22;11507;44.858;10.374;2024-03-22T03:34:57;7.10;99.90
22680;DHT22;11507;44.858;10.374;2024-03-22T03:37:26;7.10;99.90
22680;DHT22;11507;44.858;10.374;2024-03-22T03:39:52;7.10;99.90
22680;DHT22;11507;44.858;10.374;2024-03-22T03:42:19;7.10;99.90
22680;DHT22;11507;44.858;10.374;2024-03-22T03:44:45;7.10;99.90
22680;DHT22;11507;44.858;10.374;2024-03-22T03:47:11;7.20;99.90
22680;DHT22;11507;44.858;10.374;2024-03-22T03:49:38;7.10;99.90
22680;DHT22;11507;44.858;10.374;2024-03-22T03:52:05;7.20;99.90
22680;DHT22;11507;44.858;10.374;2024-03-22T03:54:31;7.20;99.90
22680;DHT22;11507;44.858;10.374;2024-03-22T03:56:58;7.30;99.90
22680;DHT22;11507;44.858;10.374;2024-03-22T03:59:24;7.30;99.90
22680;DHT22;11507;44.858;10.374;2024-03-22T04:01:51;7.30;99.90
22680;DHT22;11507;44.858;10.374;2024-03-22T04:04:17;7.30;99.90
22680;DHT22;11507;44.858;10.374;2024-03-22T04:06:44;7.40;99.90
22680;DHT22;11507;44.858;10.374;2024-03-22T04:09:11;7.30;99.90
22680;DHT22;11507;44.858;10.374;2024-03-22T04:11:37;7.30;99.90
22680;DHT22;11507;44.858;10.374;2024-03-22T04:14:05;7.30;99.90
22680;DHT22;11507;44.858;10.374;2024-03-22T04:16:32;7.20;99.90
22680;DHT22;11507;44.858;10.374;2024-03-22T04:18:58;7.20;99.90
22680;DHT22;11507;44.858;10.374;2024-03-22T04:21:24;7.20;99.90
22680;DHT22;11507;44.858;10.374;2024-03-22T04:23:51;7.10;99.90
22680;DHT22;11507;44.858;10.374;2024-03-22T04:26:17;7.10;99.90
22680;DHT22;11507;44.858;10.374;2024-03-22T04:28:44;7.10;99.90
22680;DHT22;11507;44.858;10.374;2024-03-22T04:31:10;7.00;99.90
22680;DHT22;11507;44.858;10.374;2024-03-22T04:33:37;6.90;99.90
22680;DHT22;11507;44.858;10.374;2024-03-22T04:36:04;6.80;99.90
22680;DHT22;11507;44.858;10.374;2024-03-22T04:38:31;6.80;99.90
22680;DHT22;11507;44.858;10.374;2024-03-22T04:40:57;6.70;99.90
22680;DHT22;11507;44.858;10.374;2024-03-22T04:43:24;6.60;99.90
22680;DHT22;11507;44.858;10.374;2024-03-22T04:45:51;6.60;99.90
22680;DHT22;11507;44.858;10.374;2024-03-22T04:48:22;6.50;99.90
22680;DHT22;11507;44.858;10.374;2024-03-22T04:50:50;6.40;99.90
22680;DHT22;11507;44.858;10.374;2024-03-22T04:53:18;6.40;99.90
22680;DHT22;11507;44.858;10.374;2024-03-22T04:55:45;6.20;99.90
22680;DHT22;11507;44.858;10.374;2024-03-22T04:58:16;6.20;99.90
22680;DHT22;11507;44.858;10.374;2024-03-22T05:00:44;6.20;99.90
22680;DHT22;11507;44.858;10.374;2024-03-22T05:03:11;6.10;99.90
22680;DHT22;11507;44.858;10.374;2024-03-22T05:05:38;6.00;99.90
22680;DHT22;11507;44.858;10.374;2024-03-22T05:08:06;6.00;99.90
22680;DHT22;11507;44.858;10.374;2024-03-22T05:10:32;6.00;99.90
22680;DHT22;11507;44.858;10.374;2024-03-22T05:12:59;5.90;99.90
22680;DHT22;11507;44.858;10.374;2024-03-22T05:15:27;5.90;99.90
22680;DHT22;11507;44.858;10.374;2024-03-22T05:17:56;5.90;99.90
22680;DHT22;11507;44.858;10.374;2024-03-22T05:20:23;5.90;99.90
22680;DHT22;11507;44.858;10.374;2024-03-22T05:22:49;5.80;99.90
22680;DHT22;11507;44.858;10.374;2024-03-22T05:25:16;5.80;99.90
22680;DHT22;11507;44.858;10.374;2024-03-22T05:27:43;5.80;99.90
22680;DHT22;11507;44.858;10.374;2024-03-22T05:30:11;5.80;99.90
22680;DHT22;11507;44.858;10.374;2024-03-22T05:32:37;5.80;99.90
22680;DHT22;11507;44.858;10.374;2024-03-22T05:35:05;5.80;99.90
22680;DHT22;11507;44.858;10.374;2024-03-22T05:37:31;5.80;99.90
22680;DHT22;11507;44.858;10.374;2024-03-22T05:39:58;5.70;99.90
22680;DHT22;11507;44.858;10.374;2024-03-22T05:42:25;5.70;99.90
22680;DHT22;11507;44.858;10.374;2024-03-22T05:44:51;5.80;99.90
22680;DHT22;11507;44.858;10.374;2024-03-22T05:47:19;5.90;99.90
22680;DHT22;11507;44.858;10.374;2024-03-22T05:49:46;5.90;99.90
22680;DHT22;11507;44.858;10.374;2024-03-22T05:52:12;5.90;99.90
22680;DHT22;11507;44.858;10.374;2024-03-22T05:54:39;5.90;99.90
22680;DHT22;11507;44.858;10.374;2024-03-22T05:57:05;5.90;99.90
22680;DHT22;11507;44.858;10.374;2024-03-22T05:59:32;5.90;99.90
22680;DHT22;11507;44.858;10.374;2024-03-22T06:01:59;6.00;99.90
22680;DHT22;11507;44.858;10.374;2024-03-22T06:04:25;6.10;99.90
22680;DHT22;11507;44.858;10.374;2024-03-22T06:06:52;6.10;99.90
22680;DHT22;11507;44.858;10.374;2024-03-22T06:09:18;6.20;99.90
22680;DHT22;11507;44.858;10.374;2024-03-22T06:11:50;6.30;99.90
22680;DHT22;11507;44.858;10.374;2024-03-22T06:14:17;6.40;99.90
22680;DHT22;11507;44.858;10.374;2024-03-22T06:16:44;6.50;99.90
22680;DHT22;11507;44.858;10.374;2024-03-22T06:19:10;6.70;99.90
22680;DHT22;11507;44.858;10.374;2024-03-22T06:21:37;6.80;99.90
22680;DHT22;11507;44.858;10.374;2024-03-22T06:24:03;7.00;99.90
22680;DHT22;11507;44.858;10.374;2024-03-22T06:26:33;7.20;99.90
22680;DHT22;11507;44.858;10.374;2024-03-22T06:29:02;7.30;99.90
22680;DHT22;11507;44.858;10.374;2024-03-22T06:31:29;7.40;99.90
22680;DHT22;11507;44.858;10.374;2024-03-22T06:33:55;7.50;99.90
22680;DHT22;11507;44.858;10.374;2024-03-22T06:36:34;7.70;99.90
22680;DHT22;11507;44.858;10.374;2024-03-22T06:39:01;7.80;99.90
22680;DHT22;11507;44.858;10.374;2024-03-22T06:41:29;7.90;99.90
22680;DHT22;11507;44.858;10.374;2024-03-22T06:43:57;8.00;99.90
22680;DHT22;11507;44.858;10.374;2024-03-22T06:46:23;8.20;99.90
22680;DHT22;11507;44.858;10.374;2024-03-22T06:48:51;8.40;99.90
22680;DHT22;11507;44.858;10.374;2024-03-22T06:51:18;8.50;99.90
22680;DHT22;11507;44.858;10.374;2024-03-22T06:53:46;8.70;99.90
22680;DHT22;11507;44.858;10.374;2024-03-22T06:56:14;8.90;99.90
22680;DHT22;11507;44.858;10.374;2024-03-22T06:58:47;9.10;99.90
22680;DHT22;11507;44.858;10.374;2024-03-22T07:01:13;9.20;99.90
22680;DHT22;11507;44.858;10.374;2024-03-22T07:03:40;9.30;99.90
22680;DHT22;11507;44.858;10.374;2024-03-22T07:06:06;9.50;99.90
22680;DHT22;11507;44.858;10.374;2024-03-22T07:08:35;9.60;99.90
22680;DHT22;11507;44.858;10.374;2024-03-22T07:11:05;9.80;99.90
22680;DHT22;11507;44.858;10.374;2024-03-22T07:13:32;9.90;99.90
22680;DHT22;11507;44.858;10.374;2024-03-22T07:15:58;10.10;99.90
22680;DHT22;11507;44.858;10.374;2024-03-22T07:18:25;10.30;99.90
22680;DHT22;11507;44.858;10.374;2024-03-22T07:20:52;10.50;99.90
22680;DHT22;11507;44.858;10.374;2024-03-22T07:23:18;10.60;99.90
22680;DHT22;11507;44.858;10.374;2024-03-22T07:25:45;10.80;99.90
22680;DHT22;11507;44.858;10.374;2024-03-22T07:28:14;11.10;99.90
22680;DHT22;11507;44.858;10.374;2024-03-22T07:30:42;11.20;99.90
22680;DHT22;11507;44.858;10.374;2024-03-22T07:33:10;11.40;99.90
22680;DHT22;11507;44.858;10.374;2024-03-22T07:35:42;11.50;99.90
22680;DHT22;11507;44.858;10.374;2024-03-22T07:38:09;11.70;99.90
22680;DHT22;11507;44.858;10.374;2024-03-22T07:40:36;11.80;99.90
22680;DHT22;11507;44.858;10.374;2024-03-22T07:43:02;12.00;99.90
22680;DHT22;11507;44.858;10.374;2024-03-22T07:45:35;12.20;99.90
22680;DHT22;11507;44.858;10.374;2024-03-22T07:48:02;12.40;99.90
22680;DHT22;11507;44.858;10.374;2024-03-22T07:50:28;12.50;99.90
22680;DHT22;11507;44.858;10.374;2024-03-22T07:52:55;12.90;99.90
22680;DHT22;11507;44.858;10.374;2024-03-22T07:55:22;12.90;99.90
22680;DHT22;11507;44.858;10.374;2024-03-22T07:57:50;12.80;99.90
22680;DHT22;11507;44.858;10.374;2024-03-22T08:00:17;12.80;99.90
22680;DHT22;11507;44.858;10.374;2024-03-22T08:02:43;12.80;99.90
22680;DHT22;11507;44.858;10.374;2024-03-22T08:05:10;12.90;99.90
22680;DHT22;11507;44.858;10.374;2024-03-22T08:07:36;13.00;99.90
22680;DHT22;11507;44.858;10.374;2024-03-22T08:10:03;13.10;99.90
22680;DHT22;11507;44.858;10.374;2024-03-22T08:12:30;13.10;99.90
22680;DHT22;11507;44.858;10.374;2024-03-22T08:14:56;13.10;99.90
22680;DHT22;11507;44.858;10.374;2024-03-22T08:17:23;13.10;99.90
22680;DHT22;11507;44.858;10.374;2024-03-22T08:19:49;13.00;99.90
22680;DHT22;11507;44.858;10.374;2024-03-22T08:22:16;13.00;99.90
22680;DHT22;11507;44.858;10.374;2024-03-22T08:24:42;13.00;99.90
22680;DHT22;11507;44.858;10.374;2024-03-22T08:27:08;13.00;99.90
22680;DHT22;11507;44.858;10.374;2024-03-22T08:29:35;13.20;99.90
22680;DHT22;11507;44.858;10.374;2024-03-22T08:32:01;13.20;99.90
22680;DHT22;11507;44.858;10.374;2024-03-22T08:34:31;13.20;99.90
22680;DHT22;11507;44.858;10.374;2024-03-22T08:36:59;13.10;99.90
22680;DHT22;11507;44.858;10.374;2024-03-22T08:39:25;13.30;99.90
22680;DHT22;11507;44.858;10.374;2024-03-22T08:41:52;13.40;99.90
22680;DHT22;11507;44.858;10.374;2024-03-22T08:44:18;13.60;99.90
22680;DHT22;11507;44.858;10.374;2024-03-22T08:46:45;13.60;99.90
22680;DHT22;11507;44.858;10.374;2024-03-22T08:49:12;13.60;99.90
22680;DHT22;11507;44.858;10.374;2024-03-22T08:51:38;13.60;99.90
22680;DHT22;11507;44.858;10.374;2024-03-22T08:54:05;13.70;99.90
22680;DHT22;11507;44.858;10.374;2024-03-22T08:56:31;13.80;99.90
22680;DHT22;11507;44.858;10.374;2024-03-22T08:58:59;13.90;99.90
22680;DHT22;11507;44.858;10.374;2024-03-22T09:01:25;14.10;99.90
22680;DHT22;11507;44.858;10.374;2024-03-22T09:03:52;14.10;99.90
22680;DHT22;11507;44.858;10.374;2024-03-22T09:06:19;14.20;99.90
22680;DHT22;11507;44.858;10.374;2024-03-22T09:08:46;14.40;99.90
22680;DHT22;11507;44.858;10.374;2024-03-22T09:11:12;14.80;99.90
22680;DHT22;11507;44.858;10.374;2024-03-22T09:13:39;15.00;99.90
22680;DHT22;11507;44.858;10.374;2024-03-22T09:16:05;15.40;99.90
22680;DHT22;11507;44.858;10.374;2024-03-22T09:18:32;15.70;99.90
22680;DHT22;11507;44.858;10.374;2024-03-22T09:20:59;16.10;99.90
22680;DHT22;11507;44.858;10.374;2024-03-22T09:23:25;16.30;99.90
22680;DHT22;11507;44.858;10.374;2024-03-22T09:25:52;16.60;99.90
22680;DHT22;11507;44.858;10.374;2024-03-22T09:28:18;16.90;99.90
22680;DHT22;11507;44.858;10.374;2024-03-22T09:30:45;17.10;99.90
22680;DHT22;11507;44.858;10.374;2024-03-22T09:33:11;17.40;99.90
22680;DHT22;11507;44.858;10.374;2024-03-22T09:35:37;17.70;99.90
22680;DHT22;11507;44.858;10.374;2024-03-22T09:38:04;17.80;99.90
22680;DHT22;11507;44.858;10.374;2024-03-22T09:40:30;18.00;99.90
22680;DHT22;11507;44.858;10.374;2024-03-22T09:43:02;18.00;99.90
22680;DHT22;11507;44.858;10.374;2024-03-22T09:45:31;18.20;99.90
22680;DHT22;11507;44.858;10.374;2024-03-22T09:47:58;18.30;99.90
22680;DHT22;11507;44.858;10.374;2024-03-22T09:50:25;19.00;99.90
22680;DHT22;11507;44.858;10.374;2024-03-22T09:52:52;19.60;99.90
22680;DHT22;11507;44.858;10.374;2024-03-22T09:55:25;20.10;99.90
22680;DHT22;11507;44.858;10.374;2024-03-22T09:57:52;20.70;99.90
22680;DHT22;11507;44.858;10.374;2024-03-22T10:00:20;21.20;99.90
22680;DHT22;11507;44.858;10.374;2024-03-22T10:02:52;21.70;99.90
22680;DHT22;11507;44.858;10.374;2024-03-22T10:05:19;22.00;99.90
22680;DHT22;11507;44.858;10.374;2024-03-22T10:07:46;22.40;99.90
22680;DHT22;11507;44.858;10.374;2024-03-22T10:10:13;22.70;99.90
22680;DHT22;11507;44.858;10.374;2024-03-22T10:12:41;23.10;99.90
22680;DHT22;11507;44.858;10.374;2024-03-22T10:15:08;23.40;99.90
22680;DHT22;11507;44.858;10.374;2024-03-22T10:17:35;23.70;99.90
22680;DHT22;11507;44.858;10.374;2024-03-22T10:20:02;23.90;99.90
22680;DHT22;11507;44.858;10.374;2024-03-22T10:22:28;23.80;99.90
22680;DHT22;11507;44.858;10.374;2024-03-22T10:24:55;23.60;99.90
22680;DHT22;11507;44.858;10.374;2024-03-22T10:27:27;23.90;99.90
22680;DHT22;11507;44.858;10.374;2024-03-22T10:29:55;24.00;99.60
22680;DHT22;11507;44.858;10.374;2024-03-22T10:32:23;24.40;99.90
22680;DHT22;11507;44.858;10.374;2024-03-22T10:34:50;24.80;96.70
22680;DHT22;11507;44.858;10.374;2024-03-22T10:37:17;25.00;97.20
22680;DHT22;11507;44.858;10.374;2024-03-22T10:39:43;24.60;96.70
22680;DHT22;11507;44.858;10.374;2024-03-22T10:42:12;25.00;96.40
22680;DHT22;11507;44.858;10.374;2024-03-22T10:44:41;24.80;95.60
22680;DHT22;11507;44.858;10.374;2024-03-22T10:47:09;25.10;97.60
22680;DHT22;11507;44.858;10.374;2024-03-22T10:49:38;25.50;97.40
22680;DHT22;11507;44.858;10.374;2024-03-22T10:52:07;26.30;98.00
22680;DHT22;11507;44.858;10.374;2024-03-22T10:54:39;26.80;93.40
22680;DHT22;11507;44.858;10.374;2024-03-22T10:57:09;27.00;94.00
22680;DHT22;11507;44.858;10.374;2024-03-22T10:59:37;27.40;92.50
22680;DHT22;11507;44.858;10.374;2024-03-22T11:02:04;27.90;90.50
22680;DHT22;11507;44.858;10.374;2024-03-22T11:04:33;28.30;91.00
22680;DHT22;11507;44.858;10.374;2024-03-22T11:07:01;28.80;89.20
22680;DHT22;11507;44.858;10.374;2024-03-22T11:09:29;29.20;88.80
22680;DHT22;11507;44.858;10.374;2024-03-22T11:11:57;29.40;88.70
22680;DHT22;11507;44.858;10.374;2024-03-22T11:14:25;30.10;83.90
22680;DHT22;11507;44.858;10.374;2024-03-22T11:16:52;30.70;84.40
22680;DHT22;11507;44.858;10.374;2024-03-22T11:19:21;31.20;79.20
22680;DHT22;11507;44.858;10.374;2024-03-22T11:21:48;31.80;75.10
22680;DHT22;11507;44.858;10.374;2024-03-22T11:24:15;32.10;74.80
22680;DHT22;11507;44.858;10.374;2024-03-22T11:26:41;32.50;69.20
22680;DHT22;11507;44.858;10.374;2024-03-22T11:29:10;32.90;70.40
22680;DHT22;11507;44.858;10.374;2024-03-22T11:31:36;33.30;67.30
22680;DHT22;11507;44.858;10.374;2024-03-22T11:34:03;33.60;66.90
22680;DHT22;11507;44.858;10.374;2024-03-22T11:36:29;33.70;68.00
22680;DHT22;11507;44.858;10.374;2024-03-22T11:38:56;33.70;66.00
22680;DHT22;11507;44.858;10.374;2024-03-22T11:41:32;33.90;61.10
22680;DHT22;11507;44.858;10.374;2024-03-22T11:43:59;34.10;62.40
22680;DHT22;11507;44.858;10.374;2024-03-22T11:46:27;34.40;60.50
22680;DHT22;11507;44.858;10.374;2024-03-22T11:48:54;34.60;59.30
22680;DHT22;11507;44.858;10.374;2024-03-22T11:51:21;34.80;58.30
22680;DHT22;11507;44.858;10.374;2024-03-22T11:53:54;34.70;58.40
22680;DHT22;11507;44.858;10.374;2024-03-22T11:56:22;35.00;57.70
22680;DHT22;11507;44.858;10.374;2024-03-22T11:58:49;35.30;57.60
22680;DHT22;11507;44.858;10.374;2024-03-22T12:01:16;35.40;56.20
22680;DHT22;11507;44.858;10.374;2024-03-22T12:03:46;35.70;56.20
22680;DHT22;11507;44.858;10.374;2024-03-22T12:06:14;36.10;54.20
22680;DHT22;11507;44.858;10.374;2024-03-22T12:08:41;36.30;55.10
22680;DHT22;11507;44.858;10.374;2024-03-22T12:11:11;36.20;50.00
22680;DHT22;11507;44.858;10.374;2024-03-22T12:13:40;36.10;52.60
22680;DHT22;11507;44.858;10.374;2024-03-22T12:16:06;36.20;49.20
22680;DHT22;11507;44.858;10.374;2024-03-22T12:18:33;35.90;44.30
22680;DHT22;11507;44.858;10.374;2024-03-22T12:21:00;35.70;49.30
22680;DHT22;11507;44.858;10.374;2024-03-22T12:23:26;35.80;51.00
22680;DHT22;11507;44.858;10.374;2024-03-22T12:25:53;35.60;50.30
22680;DHT22;11507;44.858;10.374;2024-03-22T12:28:21;35.60;47.80
22680;DHT22;11507;44.858;10.374;2024-03-22T12:30:49;35.40;47.10
22680;DHT22;11507;44.858;10.374;2024-03-22T12:33:15;35.20;48.30
22680;DHT22;11507;44.858;10.374;2024-03-22T12:35:42;35.10;48.20
22680;DHT22;11507;44.858;10.374;2024-03-22T12:38:09;35.20;45.50
22680;DHT22;11507;44.858;10.374;2024-03-22T12:40:38;35.20;46.20
22680;DHT22;11507;44.858;10.374;2024-03-22T12:43:05;35.60;44.50
22680;DHT22;11507;44.858;10.374;2024-03-22T12:45:32;35.70;43.10
22680;DHT22;11507;44.858;10.374;2024-03-22T12:47:58;35.90;45.90
22680;DHT22;11507;44.858;10.374;2024-03-22T12:50:26;35.50;43.00
22680;DHT22;11507;44.858;10.374;2024-03-22T12:52:52;35.90;46.20
22680;DHT22;11507;44.858;10.374;2024-03-22T12:55:19;35.60;43.90
22680;DHT22;11507;44.858;10.374;2024-03-22T12:57:46;35.80;44.00
22680;DHT22;11507;44.858;10.374;2024-03-22T13:00:13;35.80;43.70
22680;DHT22;11507;44.858;10.374;2024-03-22T13:02:45;35.80;41.20
22680;DHT22;11507;44.858;10.374;2024-03-22T13:05:12;36.10;42.00
22680;DHT22;11507;44.858;10.374;2024-03-22T13:07:39;36.20;42.00
22680;DHT22;11507;44.858;10.374;2024-03-22T13:10:05;36.50;43.90
22680;DHT22;11507;44.858;10.374;2024-03-22T13:12:33;36.60;43.80
22680;DHT22;11507;44.858;10.374;2024-03-22T13:15:01;36.90;44.10
22680;DHT22;11507;44.858;10.374;2024-03-22T13:17:28;36.70;42.20
22680;DHT22;11507;44.858;10.374;2024-03-22T13:19:54;36.90;41.40
22680;DHT22;11507;44.858;10.374;2024-03-22T13:22:20;36.50;41.50
22680;DHT22;11507;44.858;10.374;2024-03-22T13:24:47;36.90;43.50
22680;DHT22;11507;44.858;10.374;2024-03-22T13:27:16;37.20;41.50
22680;DHT22;11507;44.858;10.374;2024-03-22T13:29:43;36.70;39.40
22680;DHT22;11507;44.858;10.374;2024-03-22T13:32:10;36.80;40.40
22680;DHT22;11507;44.858;10.374;2024-03-22T13:34:37;36.50;40.00
22680;DHT22;11507;44.858;10.374;2024-03-22T13:37:04;36.30;40.00
22680;DHT22;11507;44.858;10.374;2024-03-22T13:39:32;36.50;40.50
22680;DHT22;11507;44.858;10.374;2024-03-22T13:41:58;36.50;41.20
22680;DHT22;11507;44.858;10.374;2024-03-22T13:44:25;36.20;40.70
22680;DHT22;11507;44.858;10.374;2024-03-22T13:46:51;36.30;40.30
22680;DHT22;11507;44.858;10.374;2024-03-22T13:49:19;36.20;42.50
22680;DHT22;11507;44.858;10.374;2024-03-22T13:51:49;36.30;39.70
22680;DHT22;11507;44.858;10.374;2024-03-22T13:54:16;36.50;40.60
22680;DHT22;11507;44.858;10.374;2024-03-22T13:56:43;36.70;39.60
22680;DHT22;11507;44.858;10.374;2024-03-22T13:59:10;36.50;40.00
22680;DHT22;11507;44.858;10.374;2024-03-22T14:01:37;36.50;40.70
22680;DHT22;11507;44.858;10.374;2024-03-22T14:04:04;36.30;39.70
22680;DHT22;11507;44.858;10.374;2024-03-22T14:06:32;36.60;37.50
22680;DHT22;11507;44.858;10.374;2024-03-22T14:08:59;36.40;38.50
22680;DHT22;11507;44.858;10.374;2024-03-22T14:11:30;36.50;39.10
22680;DHT22;11507;44.858;10.374;2024-03-22T14:13:57;37.10;38.70
22680;DHT22;11507;44.858;10.374;2024-03-22T14:16:24;37.30;38.60
22680;DHT22;11507;44.858;10.374;2024-03-22T14:18:51;37.50;37.10
22680;DHT22;11507;44.858;10.374;2024-03-22T14:21:18;37.40;35.50
22680;DHT22;11507;44.858;10.374;2024-03-22T14:23:49;37.30;37.30
22680;DHT22;11507;44.858;10.374;2024-03-22T14:26:17;37.10;37.30
22680;DHT22;11507;44.858;10.374;2024-03-22T14:28:44;37.10;37.70
22680;DHT22;11507;44.858;10.374;2024-03-22T14:31:11;36.90;35.30
22680;DHT22;11507;44.858;10.374;2024-03-22T14:33:38;36.70;37.00
22680;DHT22;11507;44.858;10.374;2024-03-22T14:36:06;36.30;36.70
22680;DHT22;11507;44.858;10.374;2024-03-22T14:38:33;36.10;37.40
22680;DHT22;11507;44.858;10.374;2024-03-22T14:40:59;36.00;36.80
22680;DHT22;11507;44.858;10.374;2024-03-22T14:43:27;35.90;37.60
22680;DHT22;11507;44.858;10.374;2024-03-22T14:45:54;36.00;36.80
22680;DHT22;11507;44.858;10.374;2024-03-22T14:48:23;36.40;38.00
22680;DHT22;11507;44.858;10.374;2024-03-22T14:50:50;36.60;37.60
22680;DHT22;11507;44.858;10.374;2024-03-22T14:53:19;36.60;34.80
22680;DHT22;11507;44.858;10.374;2024-03-22T14:55:57;36.60;32.70
22680;DHT22;11507;44.858;10.374;2024-03-22T14:58:34;36.90;34.80
22680;DHT22;11507;44.858;10.374;2024-03-22T15:01:02;36.90;34.20
22680;DHT22;11507;44.858;10.374;2024-03-22T15:03:28;37.10;34.60
22680;DHT22;11507;44.858;10.374;2024-03-22T15:05:56;36.00;34.90
22680;DHT22;11507;44.858;10.374;2024-03-22T15:08:23;35.30;37.80
22680;DHT22;11507;44.858;10.374;2024-03-22T15:10:50;35.10;39.10
22680;DHT22;11507;44.858;10.374;2024-03-22T15:13:17;34.60;38.60
22680;DHT22;11507;44.858;10.374;2024-03-22T15:15:53;34.50;39.30
22680;DHT22;11507;44.858;10.374;2024-03-22T15:18:20;34.20;40.50
22680;DHT22;11507;44.858;10.374;2024-03-22T15:20:46;33.60;39.20
22680;DHT22;11507;44.858;10.374;2024-03-22T15:23:14;32.90;40.20